createdAt,value
2023-03-20T00:02:21.418Z,22.17
2023-03-20T00:04:51.560Z,21.17
2023-03-20T00:07:18.418Z,21.20
2023-03-20T00:09:46.088Z,20.57
2023-03-20T00:12:22.287Z,20.43
2023-03-20T00:14:49.140Z,20.40
2023-03-20T00:17:20.733Z,22.10
2023-03-20T00:19:48.330Z,21.97
2023-03-20T00:22:17.656Z,21.63
2023-03-20T00:24:44.696Z,20.93
2023-03-20T00:27:14.430Z,22.83
2023-03-20T00:29:44.762Z,21.67
2023-03-20T00:32:15.397Z,20.83
2023-03-20T00:34:42.881Z,22.67
2023-03-20T00:37:12.007Z,22.50
2023-03-20T00:39:39.425Z,25.27
2023-03-20T00:42:10.871Z,27.80
2023-03-20T00:44:49.640Z,27.33
2023-03-20T00:47:22.031Z,29.93
2023-03-20T00:49:50.845Z,29.83
2023-03-20T00:52:19.547Z,31.80
2023-03-20T00:54:46.784Z,32.20
2023-03-20T00:57:19.557Z,31.80
2023-03-20T00:59:57.068Z,31.17
2023-03-20T01:02:29.224Z,30.37
2023-03-20T01:04:56.902Z,30.80
2023-03-20T01:07:23.709Z,30.50
2023-03-20T01:09:52.776Z,32.03
2023-03-20T01:12:19.912Z,29.90
2023-03-20T01:14:58.484Z,29.67
2023-03-20T01:17:27.913Z,28.57
2023-03-20T01:19:56.002Z,30.00
2023-03-20T01:22:22.982Z,31.17
2023-03-20T01:24:52.798Z,29.70
2023-03-20T01:27:23.953Z,30.50
2023-03-20T01:29:50.789Z,30.63
2023-03-20T01:32:19.407Z,31.00
2023-03-20T01:34:50.364Z,28.80
2023-03-20T01:37:28.245Z,29.27
2023-03-20T01:39:56.835Z,31.93
2023-03-20T01:42:24.083Z,31.07
2023-03-20T01:44:51.912Z,31.53
2023-03-20T01:47:23.615Z,32.10
2023-03-20T01:50:18.721Z,31.07
2023-03-20T01:52:49.245Z,32.80
2023-03-20T01:55:16.480Z,33.50
2023-03-20T01:57:46.597Z,32.83
2023-03-20T02:00:17.173Z,31.17
2023-03-20T02:02:48.780Z,33.23
2023-03-20T02:05:19.808Z,31.73
2023-03-20T02:07:52.958Z,32.73
2023-03-20T02:10:20.741Z,31.97
2023-03-20T02:12:48.425Z,31.63
2023-03-20T02:15:17.064Z,30.40
2023-03-20T02:17:44.494Z,31.80
2023-03-20T02:20:20.170Z,32.63
2023-03-20T02:23:30.535Z,30.37
2023-03-20T02:26:18.633Z,30.73
2023-03-20T02:29:17.046Z,30.23
2023-03-20T02:32:22.022Z,29.67
2023-03-20T02:35:08.024Z,29.17
2023-03-20T02:38:06.836Z,29.23
2023-03-20T02:40:36.950Z,28.87
2023-03-20T02:43:21.753Z,28.77
2023-03-20T02:46:10.051Z,27.53
2023-03-20T02:48:50.226Z,29.23
2023-03-20T02:51:25.300Z,29.27
2023-03-20T02:53:53.669Z,28.57
2023-03-20T02:56:37.966Z,27.70
2023-03-20T02:59:26.283Z,25.87
2023-03-20T03:02:07.664Z,28.40
2023-03-20T03:04:46.259Z,29.00
2023-03-20T03:07:15.272Z,28.10
2023-03-20T03:09:50.305Z,28.50
2023-03-20T03:12:42.494Z,25.77
2023-03-20T03:15:32.569Z,27.20
2023-03-20T03:18:00.477Z,29.83
2023-03-20T03:20:32.493Z,26.23
2023-03-20T03:23:00.883Z,28.07
2023-03-20T03:25:33.022Z,29.43
2023-03-20T03:28:49.685Z,29.07
2023-03-20T03:31:18.751Z,27.40
2023-03-20T03:33:55.697Z,24.33
2023-03-20T03:36:44.613Z,27.67
2023-03-20T03:39:57.640Z,28.23
2023-03-20T03:42:51.241Z,29.50
2023-03-20T03:45:52.320Z,28.07
2023-03-20T03:48:22.934Z,28.80
2023-03-20T03:50:57.958Z,27.77
2023-03-20T03:53:36.508Z,29.90
2023-03-20T03:56:09.958Z,27.50
2023-03-20T03:58:49.590Z,27.43
2023-03-20T04:01:23.671Z,29.30
2023-03-20T04:03:56.215Z,28.03
2023-03-20T04:06:28.599Z,30.07
2023-03-20T04:08:55.618Z,27.97
2023-03-20T04:11:29.148Z,29.97
2023-03-20T04:13:56.419Z,28.73
2023-03-20T04:16:24.848Z,29.20
2023-03-20T04:18:52.085Z,29.20
2023-03-20T04:21:19.745Z,29.03
2023-03-20T04:23:52.506Z,30.23
2023-03-20T04:26:19.331Z,29.47
2023-03-20T04:28:47.069Z,29.40
2023-03-20T04:31:14.195Z,29.67
2023-03-20T04:33:42.079Z,28.70
2023-03-20T04:36:10.430Z,27.67
2023-03-20T04:38:37.416Z,28.43
2023-03-20T04:41:05.600Z,29.80
2023-03-20T04:43:35.419Z,29.07
2023-03-20T04:46:07.466Z,29.13
2023-03-20T04:48:34.488Z,28.27
2023-03-20T04:51:02.729Z,27.17
2023-03-20T04:53:29.548Z,26.30
2023-03-20T04:55:56.654Z,23.83
2023-03-20T04:58:24.898Z,24.03
2023-03-20T05:00:51.743Z,25.43
2023-03-20T05:03:23.823Z,24.23
2023-03-20T05:05:51.319Z,24.93
2023-03-20T05:08:18.317Z,24.73
2023-03-20T05:10:45.482Z,25.17
2023-03-20T05:13:12.464Z,24.93
2023-03-20T05:15:39.224Z,25.03
2023-03-20T05:18:05.991Z,24.60
2023-03-20T05:20:32.966Z,24.63
2023-03-20T05:22:59.760Z,24.70
2023-03-20T05:25:27.099Z,24.70
2023-03-20T05:27:57.316Z,25.33
2023-03-20T05:30:24.655Z,25.70
2023-03-20T05:32:52.732Z,24.70
2023-03-20T05:35:20.050Z,25.40
2023-03-20T05:37:49.843Z,23.17
2023-03-20T05:40:17.132Z,25.47
2023-03-20T05:42:45.981Z,23.50
2023-03-20T05:45:13.019Z,25.83
2023-03-20T05:47:39.791Z,23.83
2023-03-20T05:50:07.347Z,23.47
2023-03-20T05:52:34.349Z,23.43
2023-03-20T05:55:01.134Z,25.43
2023-03-20T05:57:28.438Z,26.13
2023-03-20T05:59:55.325Z,25.00
2023-03-20T06:02:25.477Z,24.93
2023-03-20T06:04:52.581Z,24.93
2023-03-20T06:07:20.214Z,24.47
2023-03-20T06:09:47.393Z,23.57
2023-03-20T06:12:14.626Z,23.17
2023-03-20T06:14:41.381Z,23.00
2023-03-20T06:17:08.452Z,22.27
2023-03-20T06:19:39.404Z,24.87
2023-03-20T06:22:07.001Z,22.10
2023-03-20T06:24:34.381Z,23.47
2023-03-20T06:27:01.620Z,21.70
2023-03-20T06:29:29.298Z,21.57
2023-03-20T06:31:56.076Z,20.67
2023-03-20T06:34:22.884Z,21.77
2023-03-20T06:36:50.184Z,20.97
2023-03-20T06:39:17.134Z,22.77
2023-03-20T06:41:43.945Z,23.30
2023-03-20T06:44:11.548Z,23.23
2023-03-20T06:46:38.725Z,23.43
2023-03-20T06:49:06.365Z,23.10
2023-03-20T06:51:33.659Z,23.73
2023-03-20T06:54:07.250Z,23.90
2023-03-20T06:56:34.269Z,23.63
2023-03-20T06:59:01.411Z,23.80
2023-03-20T07:01:29.324Z,23.63
2023-03-20T07:03:56.492Z,23.03
2023-03-20T07:06:23.376Z,23.30
2023-03-20T07:08:53.051Z,21.83
2023-03-20T07:11:19.934Z,23.03
2023-03-20T07:13:49.699Z,25.83
2023-03-20T07:16:17.223Z,23.10
2023-03-20T07:18:44.628Z,24.00
2023-03-20T07:21:18.760Z,25.80
2023-03-20T07:23:45.821Z,24.17
2023-03-20T07:26:15.936Z,24.33
2023-03-20T07:28:42.740Z,23.57
2023-03-20T07:31:20.817Z,23.00
2023-03-20T07:33:48.305Z,21.67
2023-03-20T07:36:15.452Z,22.93
2023-03-20T07:38:42.658Z,22.00
2023-03-20T07:41:09.964Z,20.17
2023-03-20T07:43:36.977Z,18.90
2023-03-20T07:46:08.241Z,18.53
2023-03-20T07:48:36.866Z,18.67
2023-03-20T07:51:03.930Z,17.23
2023-03-20T07:53:31.034Z,17.73
2023-03-20T07:55:58.790Z,17.37
2023-03-20T07:58:26.076Z,17.17
2023-03-20T08:00:56.731Z,18.00
2023-03-20T08:03:23.778Z,17.30
2023-03-20T08:05:50.928Z,15.90
2023-03-20T08:08:18.722Z,17.50
2023-03-20T08:10:46.455Z,16.50
2023-03-20T08:13:13.352Z,17.23
2023-03-20T08:15:40.690Z,16.80
2023-03-20T08:18:08.014Z,16.30
2023-03-20T08:20:34.845Z,15.83
2023-03-20T08:23:02.221Z,16.23
2023-03-20T08:25:33.602Z,16.20
2023-03-20T08:28:01.930Z,15.40
2023-03-20T08:30:29.445Z,16.07
2023-03-20T08:32:58.368Z,15.20
2023-03-20T08:35:33.022Z,15.60
2023-03-20T08:38:01.446Z,14.20
2023-03-20T08:40:28.568Z,14.93
2023-03-20T08:42:55.714Z,13.40
2023-03-20T08:45:26.259Z,13.53
2023-03-20T08:47:53.852Z,10.63
2023-03-20T08:50:21.438Z,9.33
2023-03-20T08:52:48.483Z,10.47
2023-03-20T08:55:16.938Z,8.50
2023-03-20T08:57:46.951Z,7.43
2023-03-20T09:00:16.530Z,6.83
2023-03-20T09:02:43.572Z,7.57
2023-03-20T09:05:11.316Z,8.53
2023-03-20T09:07:38.540Z,7.27
2023-03-20T09:10:06.100Z,7.43
2023-03-20T09:12:33.523Z,8.17
2023-03-20T09:15:01.827Z,8.87
2023-03-20T09:17:28.757Z,9.37
2023-03-20T09:19:57.838Z,9.80
2023-03-20T09:22:28.840Z,9.53
2023-03-20T09:24:55.713Z,11.63
2023-03-20T09:27:22.793Z,11.27
2023-03-20T09:29:50.037Z,11.10
2023-03-20T09:32:17.243Z,11.23
2023-03-20T09:34:44.070Z,11.30
2023-03-20T09:37:11.120Z,12.03
2023-03-20T09:39:38.452Z,10.97
2023-03-20T09:42:29.425Z,12.23
2023-03-20T09:45:08.917Z,11.50
2023-03-20T09:48:33.802Z,10.27
2023-03-20T09:51:21.658Z,10.23
2023-03-20T09:53:54.954Z,11.07
2023-03-20T09:56:25.976Z,11.40
2023-03-20T09:58:59.040Z,11.67
2023-03-20T10:01:44.952Z,12.43
2023-03-20T10:04:12.753Z,12.57
2023-03-20T10:06:40.909Z,12.00
2023-03-20T10:09:21.443Z,11.97
2023-03-20T10:12:09.380Z,11.90
2023-03-20T10:15:04.228Z,11.50
2023-03-20T10:18:09.366Z,10.27
2023-03-20T10:20:40.783Z,10.27
2023-03-20T10:23:22.435Z,9.57
2023-03-20T10:26:00.665Z,9.57
2023-03-20T10:28:43.702Z,10.00
2023-03-20T10:31:30.134Z,9.43
2023-03-20T10:34:18.381Z,9.00
2023-03-20T10:37:02.002Z,8.80
2023-03-20T10:39:50.542Z,8.30
2023-03-20T10:42:29.111Z,8.23
2023-03-20T10:45:33.400Z,7.90
2023-03-20T10:48:06.837Z,7.80
2023-03-20T10:50:42.502Z,7.50
2023-03-20T10:53:21.691Z,7.03
2023-03-20T10:55:49.650Z,6.93
2023-03-20T10:58:24.147Z,6.73
2023-03-20T11:00:51.369Z,6.17
2023-03-20T11:03:26.363Z,6.00
2023-03-20T11:06:09.732Z,6.50
2023-03-20T11:08:41.286Z,6.00
2023-03-20T11:11:09.152Z,6.20
2023-03-20T11:13:41.244Z,5.63
2023-03-20T11:16:31.831Z,6.43
2023-03-20T11:19:07.139Z,8.47
2023-03-20T11:21:52.954Z,6.17
2023-03-20T11:24:25.943Z,6.97
2023-03-20T11:26:53.313Z,6.13
2023-03-20T11:29:35.146Z,6.57
2023-03-20T11:32:28.561Z,7.30
2023-03-20T11:34:58.932Z,7.13
2023-03-20T11:37:34.195Z,8.00
2023-03-20T11:40:23.877Z,7.43
2023-03-20T11:42:55.873Z,8.43
2023-03-20T11:45:23.952Z,8.57
2023-03-20T11:47:52.864Z,7.73
2023-03-20T11:50:26.663Z,7.67
2023-03-20T11:52:54.150Z,7.97
2023-03-20T11:55:30.176Z,8.13
2023-03-20T11:58:00.660Z,7.50
2023-03-20T12:00:41.675Z,7.53
2023-03-20T12:03:36.441Z,7.53
2023-03-20T12:06:09.750Z,6.63
2023-03-20T12:08:40.126Z,6.77
2023-03-20T12:11:40.062Z,6.57
2023-03-20T12:14:23.814Z,6.83
2023-03-20T12:16:55.911Z,5.47
2023-03-20T12:19:29.182Z,5.60
2023-03-20T12:22:15.837Z,5.63
2023-03-20T12:24:51.830Z,5.27
2023-03-20T12:27:49.017Z,5.97
2023-03-20T12:30:29.908Z,5.00
2023-03-20T12:33:30.235Z,5.40
2023-03-20T12:35:58.640Z,5.70
2023-03-20T12:38:33.641Z,5.60
2023-03-20T12:41:12.503Z,5.67
2023-03-20T12:44:04.149Z,5.60
2023-03-20T12:47:01.696Z,4.87
2023-03-20T12:49:43.210Z,5.20
2023-03-20T12:52:19.484Z,4.37
2023-03-20T12:55:13.979Z,4.50
2023-03-20T12:57:46.543Z,4.10
2023-03-20T13:00:23.762Z,4.57
2023-03-20T13:03:11.779Z,4.27
2023-03-20T13:06:04.434Z,4.27
2023-03-20T13:08:45.302Z,3.87
2023-03-20T13:11:27.218Z,3.60
2023-03-20T13:14:03.823Z,4.00
2023-03-20T13:16:55.031Z,3.80
2023-03-20T13:19:53.053Z,3.33
2023-03-20T13:22:43.130Z,3.17
2023-03-20T13:25:43.826Z,3.53
2023-03-20T13:28:31.122Z,3.23
2023-03-20T13:31:32.193Z,2.60
2023-03-20T13:34:23.505Z,2.67
2023-03-20T13:37:19.935Z,3.07
2023-03-20T13:40:18.010Z,3.00
2023-03-20T13:43:02.356Z,2.87
2023-03-20T13:45:38.275Z,2.97
2023-03-20T13:48:32.245Z,2.63
2023-03-20T13:51:23.892Z,3.00
2023-03-20T13:53:59.959Z,2.57
2023-03-20T13:56:38.927Z,2.57
2023-03-20T13:59:24.577Z,2.70
2023-03-20T14:02:07.935Z,3.00
2023-03-20T14:04:35.414Z,2.93
2023-03-20T14:07:02.547Z,2.90
2023-03-20T14:09:33.657Z,2.90
2023-03-20T14:12:09.974Z,2.97
2023-03-20T14:14:50.058Z,2.90
2023-03-20T14:17:32.262Z,2.70
2023-03-20T14:20:29.726Z,2.70
2023-03-20T14:22:57.823Z,2.90
2023-03-20T14:25:25.935Z,3.00
2023-03-20T14:28:11.416Z,2.57
2023-03-20T14:30:46.678Z,3.60
2023-03-20T14:33:13.660Z,3.17
2023-03-20T14:35:51.435Z,3.30
2023-03-20T14:38:26.192Z,2.90
2023-03-20T14:41:16.142Z,3.00
2023-03-20T14:44:08.883Z,3.50
2023-03-20T14:47:04.731Z,3.30
2023-03-20T14:49:44.373Z,3.93
2023-03-20T14:52:26.442Z,4.00
2023-03-20T14:54:54.800Z,3.97
2023-03-20T14:57:52.780Z,4.03
2023-03-20T15:00:27.782Z,4.57
2023-03-20T15:03:08.610Z,4.57
2023-03-20T15:05:39.214Z,4.90
2023-03-20T15:08:25.717Z,4.50
2023-03-20T15:11:02.066Z,5.00
2023-03-20T15:13:31.080Z,5.43
2023-03-20T15:16:08.856Z,4.77
2023-03-20T15:18:46.586Z,4.70
2023-03-20T15:21:35.433Z,5.20
2023-03-20T15:24:03.033Z,4.80
2023-03-20T15:26:33.098Z,4.93
2023-03-20T15:29:11.049Z,4.80
2023-03-20T15:31:41.030Z,4.63
2023-03-20T15:34:14.941Z,5.07
2023-03-20T15:36:43.289Z,4.80
2023-03-20T15:39:13.402Z,5.00
2023-03-20T15:41:40.605Z,4.97
2023-03-20T15:44:20.959Z,4.97
2023-03-20T15:47:03.909Z,4.60
2023-03-20T15:49:33.742Z,4.97
2023-03-20T15:52:05.826Z,5.00
2023-03-20T15:54:34.571Z,4.40
2023-03-20T15:57:03.124Z,4.73
2023-03-20T15:59:34.215Z,4.73
2023-03-20T16:02:02.000Z,4.10
2023-03-20T16:04:29.179Z,4.40
2023-03-20T16:07:01.050Z,4.17
2023-03-20T16:09:30.285Z,3.93
2023-03-20T16:12:03.222Z,3.70
2023-03-20T16:14:33.149Z,3.00
2023-03-20T16:17:03.625Z,3.43
2023-03-20T16:19:30.727Z,3.47
2023-03-20T16:22:02.206Z,3.40
2023-03-20T16:24:31.698Z,3.30
2023-03-20T16:26:59.107Z,3.50
2023-03-20T16:29:27.890Z,3.20
2023-03-20T16:32:08.111Z,4.20
2023-03-20T16:34:38.300Z,3.43
2023-03-20T16:37:26.547Z,4.13
2023-03-20T16:40:06.020Z,3.67
2023-03-20T16:42:33.821Z,3.60
2023-03-20T16:45:06.394Z,4.47
2023-03-20T16:47:40.857Z,4.30
2023-03-20T16:50:12.720Z,3.90
2023-03-20T16:52:42.334Z,4.10
2023-03-20T16:55:19.502Z,4.17
2023-03-20T16:57:49.722Z,4.67
2023-03-20T17:00:41.872Z,4.93
2023-03-20T17:03:24.760Z,5.27
2023-03-20T17:05:56.709Z,5.37
2023-03-20T17:08:31.537Z,5.13
2023-03-20T17:11:03.514Z,5.07
2023-03-20T17:13:30.279Z,5.43
2023-03-20T17:15:57.261Z,5.53
2023-03-20T17:18:24.278Z,6.40
2023-03-20T17:20:51.327Z,6.57
2023-03-20T17:23:21.549Z,7.70
2023-03-20T17:25:49.777Z,6.43
2023-03-20T17:28:23.392Z,6.03
2023-03-20T17:30:51.665Z,7.13
2023-03-20T17:33:21.143Z,6.43
2023-03-20T17:35:49.760Z,6.60
2023-03-20T17:38:19.452Z,6.67
2023-03-20T17:40:46.264Z,6.73
2023-03-20T17:43:15.450Z,7.90
2023-03-20T17:45:43.334Z,7.57
2023-03-20T17:48:21.026Z,6.63
2023-03-20T17:50:51.500Z,7.77
2023-03-20T17:53:29.234Z,7.17
2023-03-20T17:55:56.321Z,7.53
2023-03-20T17:58:24.440Z,8.57
2023-03-20T18:00:53.405Z,8.90
2023-03-20T18:03:23.273Z,7.57
2023-03-20T18:05:51.292Z,7.93
2023-03-20T18:08:21.529Z,7.87
2023-03-20T18:10:50.616Z,8.90
2023-03-20T18:13:21.022Z,8.60
2023-03-20T18:15:55.507Z,8.37
2023-03-20T18:18:24.196Z,9.43
2023-03-20T18:20:52.704Z,10.77
2023-03-20T18:23:19.637Z,9.73
2023-03-20T18:25:46.483Z,8.77
2023-03-20T18:28:20.784Z,9.03
2023-03-20T18:30:48.965Z,8.90
2023-03-20T18:33:16.809Z,9.57
2023-03-20T18:35:44.295Z,8.63
2023-03-20T18:38:13.952Z,9.50
2023-03-20T18:40:42.675Z,9.23
2023-03-20T18:43:11.099Z,9.47
2023-03-20T18:45:39.691Z,9.30
2023-03-20T18:48:07.210Z,8.90
2023-03-20T18:50:41.129Z,8.87
2023-03-20T18:53:09.783Z,10.50
2023-03-20T18:55:38.207Z,9.60
2023-03-20T18:58:06.484Z,9.83
2023-03-20T19:00:40.201Z,10.43
2023-03-20T19:03:11.970Z,9.90
2023-03-20T19:05:39.057Z,10.27
2023-03-20T19:08:06.709Z,11.13
2023-03-20T19:10:44.876Z,11.00
2023-03-20T19:13:18.316Z,11.13
2023-03-20T19:15:46.587Z,10.93
2023-03-20T19:18:40.242Z,10.40
2023-03-20T19:21:10.007Z,11.57
2023-03-20T19:23:38.649Z,11.67
2023-03-20T19:26:13.646Z,12.03
2023-03-20T19:28:41.944Z,11.17
2023-03-20T19:31:15.702Z,12.23
2023-03-20T19:33:43.514Z,11.20
2023-03-20T19:36:31.712Z,10.77
2023-03-20T19:39:05.770Z,11.83
2023-03-20T19:41:33.065Z,12.00
2023-03-20T19:44:01.375Z,13.43
2023-03-20T19:46:41.143Z,15.43
2023-03-20T19:49:19.952Z,14.43
2023-03-20T19:51:48.983Z,13.07
2023-03-20T19:54:23.909Z,14.10
2023-03-20T19:56:51.069Z,13.37
2023-03-20T19:59:20.903Z,13.40
2023-03-20T20:01:48.303Z,13.80
2023-03-20T20:04:16.653Z,13.53
2023-03-20T20:06:47.656Z,13.37
2023-03-20T20:09:18.108Z,14.03
2023-03-20T20:11:45.203Z,13.73
2023-03-20T20:14:14.953Z,14.27
2023-03-20T20:16:46.077Z,14.70
2023-03-20T20:19:13.395Z,14.07
2023-03-20T20:24:30.725Z,14.70
2023-03-20T20:27:15.231Z,15.17
2023-03-20T20:29:52.589Z,14.33
2023-03-20T20:32:23.484Z,13.93
2023-03-20T20:38:28.255Z,14.33
2023-03-20T20:40:30.231Z,14.90
2023-03-20T20:43:01.909Z,14.97
2023-03-20T20:45:33.342Z,14.03
2023-03-20T20:48:01.553Z,14.10
2023-03-20T20:50:30.505Z,13.83
2023-03-20T20:52:58.611Z,14.20
2023-03-20T20:55:25.542Z,13.80
2023-03-20T20:57:55.570Z,13.83
2023-03-20T21:00:41.061Z,13.47
2023-03-20T21:03:12.685Z,13.73
2023-03-20T21:05:43.246Z,14.43
2023-03-20T21:08:12.118Z,13.30
2023-03-20T21:10:39.880Z,12.87
2023-03-20T21:13:08.443Z,12.57
2023-03-20T21:15:35.535Z,13.43
2023-03-20T21:18:02.630Z,13.73
2023-03-20T21:20:34.197Z,13.17
2023-03-20T21:23:01.537Z,12.70
2023-03-20T21:25:39.540Z,12.57
2023-03-20T21:28:08.614Z,12.93
2023-03-20T21:30:36.048Z,12.30
2023-03-20T21:33:03.260Z,12.53
2023-03-20T21:35:30.835Z,13.23
2023-03-20T21:38:51.234Z,11.93
2023-03-20T21:40:45.154Z,13.87
2023-03-20T21:43:13.397Z,12.97
2023-03-20T21:49:43.093Z,11.63
2023-03-20T22:00:14.950Z,10.73
2023-03-20T22:02:29.064Z,10.93
2023-03-20T22:05:41.699Z,9.57
2023-03-20T22:08:57.753Z,11.00
2023-03-20T22:16:58.192Z,9.90
2023-03-20T22:22:37.416Z,9.83
2023-03-20T22:25:15.929Z,10.30
2023-03-20T22:27:56.669Z,8.63
2023-03-20T22:31:01.669Z,8.20
2023-03-20T22:33:44.590Z,9.27
2023-03-20T22:46:55.648Z,8.97
2023-03-20T22:49:25.313Z,8.60
2023-03-20T22:52:08.335Z,9.27
2023-03-20T22:54:39.275Z,10.03
2023-03-20T22:57:06.438Z,9.70
2023-03-20T22:59:34.564Z,9.63
2023-03-20T23:02:01.659Z,9.23
2023-03-20T23:04:30.207Z,8.60
2023-03-20T23:06:57.544Z,8.50
2023-03-20T23:09:24.595Z,9.23
2023-03-20T23:11:51.492Z,8.83
2023-03-20T23:14:21.679Z,8.37
2023-03-20T23:16:50.438Z,9.13
2023-03-20T23:19:17.407Z,8.47
2023-03-20T23:21:44.272Z,8.40
2023-03-20T23:24:11.626Z,9.53
2023-03-20T23:26:38.491Z,8.93
2023-03-20T23:29:06.141Z,8.93
2023-03-20T23:31:33.118Z,9.23
2023-03-20T23:34:02.969Z,8.80
2023-03-20T23:36:36.506Z,8.77
2023-03-20T23:39:12.138Z,9.73
2023-03-20T23:42:08.416Z,8.90
2023-03-20T23:44:26.536Z,9.33
2023-03-20T23:46:54.645Z,9.03
2023-03-20T23:49:22.206Z,9.00
2023-03-20T23:51:49.273Z,8.90
2023-03-20T23:54:16.222Z,9.20
2023-03-20T23:56:43.158Z,9.50
2023-03-20T23:59:25.504Z,8.90
